createdAt,value
2018-12-18T00:01:23.693Z,82.08
2018-12-18T00:03:54.576Z,81.86
2018-12-18T00:06:25.509Z,81.52
2018-12-18T00:08:54.465Z,81.70
2018-12-18T00:11:23.472Z,82.30
2018-12-18T00:13:54.324Z,81.82
2018-12-18T00:16:23.218Z,82.15
2018-12-18T00:18:52.344Z,82.11
2018-12-18T00:21:22.412Z,82.67
2018-12-18T00:23:51.921Z,82.64
2018-12-18T00:26:21.512Z,83.30
2018-12-18T00:28:50.420Z,83.08
2018-12-18T00:31:19.874Z,83.04
2018-12-18T00:33:48.821Z,83.24
2018-12-18T00:36:18.153Z,83.04
2018-12-18T00:38:50.221Z,83.37
2018-12-18T00:41:19.065Z,82.94
2018-12-18T00:43:48.282Z,83.72
2018-12-18T00:46:17.153Z,82.85
2018-12-18T00:48:46.085Z,82.41
2018-12-18T00:51:14.941Z,83.21
2018-12-18T00:53:43.790Z,83.10
2018-12-18T00:56:13.245Z,83.09
2018-12-18T00:58:42.173Z,83.48
2018-12-18T01:01:11.090Z,83.88
2018-12-18T01:03:40.057Z,84.09
2018-12-18T01:06:08.892Z,83.65
2018-12-18T01:08:37.749Z,83.61
2018-12-18T01:11:06.599Z,83.50
2018-12-18T01:13:35.573Z,83.23
2018-12-18T01:16:04.989Z,84.00
2018-12-18T01:18:33.842Z,83.42
2018-12-18T01:21:02.687Z,83.26
2018-12-18T01:23:31.536Z,82.98
2018-12-18T01:26:00.458Z,83.62
2018-12-18T01:28:29.469Z,83.10
2018-12-18T01:30:58.407Z,83.56
2018-12-18T01:33:27.437Z,83.60
2018-12-18T01:35:56.320Z,84.17
2018-12-18T01:38:25.289Z,82.91
2018-12-18T01:40:54.182Z,82.87
2018-12-18T01:43:23.185Z,82.92
2018-12-18T01:45:52.074Z,83.68
2018-12-18T01:48:20.974Z,83.04
2018-12-18T01:50:49.874Z,83.01
2018-12-18T01:53:18.844Z,83.25
2018-12-18T01:55:48.745Z,82.86
2018-12-18T01:58:17.637Z,82.94
2018-12-18T02:00:46.653Z,83.71
2018-12-18T02:03:15.529Z,83.60
2018-12-18T02:05:44.644Z,83.31
2018-12-18T02:08:13.496Z,83.07
2018-12-18T02:10:42.501Z,83.74
2018-12-18T02:13:11.414Z,83.73
2018-12-18T02:15:40.400Z,83.65
2018-12-18T02:18:09.285Z,82.75
2018-12-18T02:20:38.185Z,83.36
2018-12-18T02:23:07.470Z,82.59
2018-12-18T02:25:36.368Z,83.50
2018-12-18T02:28:05.236Z,83.54
2018-12-18T02:30:34.327Z,84.14
2018-12-18T02:33:03.317Z,82.77
2018-12-18T02:35:32.234Z,83.77
2018-12-18T02:38:01.119Z,83.92
2018-12-18T02:40:30.107Z,83.50
2018-12-18T02:42:59.461Z,83.59
2018-12-18T02:45:28.366Z,83.26
2018-12-18T02:47:57.261Z,83.45
2018-12-18T02:50:26.189Z,83.36
2018-12-18T02:52:55.082Z,83.30
2018-12-18T02:55:23.967Z,83.92
2018-12-18T02:57:52.855Z,83.79
2018-12-18T03:00:21.741Z,83.05
2018-12-18T03:02:50.625Z,83.17
2018-12-18T03:05:19.552Z,83.21
2018-12-18T03:07:48.620Z,83.38
2018-12-18T03:10:17.502Z,83.62
2018-12-18T03:12:46.383Z,83.23
2018-12-18T03:15:15.298Z,83.03
2018-12-18T03:17:44.177Z,82.77
2018-12-18T03:20:13.084Z,83.26
2018-12-18T03:22:41.953Z,83.90
2018-12-18T03:25:10.941Z,83.45
2018-12-18T03:27:40.991Z,82.50
2018-12-18T03:30:10.489Z,83.18
2018-12-18T03:32:49.373Z,82.74
2018-12-18T03:35:18.298Z,82.58
2018-12-18T03:37:47.227Z,82.49
2018-12-18T03:40:16.165Z,83.21
2018-12-18T03:42:45.078Z,83.58
2018-12-18T03:45:14.057Z,83.75
2018-12-18T03:47:43.067Z,83.13
2018-12-18T03:50:15.178Z,83.29
2018-12-18T03:52:44.002Z,83.83
2018-12-18T03:55:13.133Z,83.86
2018-12-18T03:57:44.047Z,83.71
2018-12-18T04:00:13.744Z,84.07
2018-12-18T04:02:42.636Z,83.78
2018-12-18T04:05:11.538Z,83.77
2018-12-18T04:07:40.456Z,83.93
2018-12-18T04:10:09.627Z,83.78
2018-12-18T04:12:39.733Z,83.69
2018-12-18T04:15:08.713Z,84.03
2018-12-18T04:17:37.564Z,83.87
2018-12-18T04:20:06.644Z,83.87
2018-12-18T04:22:35.736Z,83.75
2018-12-18T04:25:04.804Z,83.67
2018-12-18T04:27:34.218Z,83.21
2018-12-18T04:30:03.089Z,83.30
2018-12-18T04:32:32.074Z,83.00
2018-12-18T04:35:02.937Z,82.96
2018-12-18T04:37:31.802Z,83.49
2018-12-18T04:40:00.793Z,83.15
2018-12-18T04:42:30.912Z,84.09
2018-12-18T04:44:59.817Z,83.51
2018-12-18T04:47:28.808Z,83.46
2018-12-18T04:49:58.537Z,82.94
2018-12-18T04:52:27.368Z,83.16
2018-12-18T04:54:56.290Z,82.98
2018-12-18T04:57:25.197Z,82.92
2018-12-18T04:59:54.181Z,83.17
2018-12-18T05:02:23.079Z,82.91
2018-12-18T05:04:52.107Z,82.65
2018-12-18T05:07:20.947Z,83.10
2018-12-18T05:09:49.842Z,82.92
2018-12-18T05:12:19.672Z,83.09
2018-12-18T05:14:49.456Z,83.63
2018-12-18T05:17:18.357Z,83.31
2018-12-18T05:19:47.337Z,83.86
2018-12-18T05:22:16.459Z,83.64
2018-12-18T05:24:45.429Z,83.08
2018-12-18T05:27:14.353Z,83.76
2018-12-18T05:29:43.223Z,83.43
2018-12-18T05:32:12.114Z,84.08
2018-12-18T05:34:40.993Z,83.31
2018-12-18T05:37:09.832Z,83.36
2018-12-18T05:39:38.681Z,83.50
2018-12-18T05:42:07.564Z,83.94
2018-12-18T05:44:36.464Z,83.31
2018-12-18T05:47:05.332Z,83.68
2018-12-18T05:49:34.253Z,83.03
2018-12-18T05:52:03.159Z,82.88
2018-12-18T05:54:32.250Z,83.14
2018-12-18T05:57:01.202Z,83.09
2018-12-18T05:59:30.122Z,83.12
2018-12-18T06:01:58.940Z,83.45
2018-12-18T06:04:28.592Z,83.01
2018-12-18T06:06:57.493Z,82.82
2018-12-18T06:09:26.393Z,82.73
2018-12-18T06:11:55.261Z,82.80
2018-12-18T06:14:24.117Z,83.01
2018-12-18T06:16:53.959Z,82.66
2018-12-18T06:19:23.608Z,82.69
2018-12-18T06:21:52.476Z,82.94
2018-12-18T06:24:21.365Z,83.02
2018-12-18T06:26:50.221Z,82.67
2018-12-18T06:29:20.108Z,82.46
2018-12-18T06:31:49.074Z,82.63
2018-12-18T06:34:17.963Z,83.35
2018-12-18T06:36:46.846Z,83.01
2018-12-18T06:39:15.729Z,82.64
2018-12-18T06:41:44.612Z,82.36
2018-12-18T06:44:13.506Z,82.02
2018-12-18T06:46:42.494Z,82.60
2018-12-18T06:49:12.000Z,81.90
2018-12-18T06:51:40.894Z,82.62
2018-12-18T06:54:09.779Z,82.14
2018-12-18T06:56:38.710Z,82.49
2018-12-18T06:59:07.706Z,82.27
2018-12-18T07:01:36.556Z,82.92
2018-12-18T07:04:05.901Z,83.45
2018-12-18T07:06:34.749Z,82.28
2018-12-18T07:09:06.000Z,82.54
2018-12-18T07:11:36.021Z,82.28
2018-12-18T07:14:05.004Z,82.15
2018-12-18T07:16:34.001Z,82.35
2018-12-18T07:19:02.858Z,82.35
2018-12-18T07:21:31.774Z,82.66
2018-12-18T07:24:00.592Z,82.13
2018-12-18T07:26:29.553Z,82.13
2018-12-18T07:28:58.381Z,82.38
2018-12-18T07:31:27.234Z,82.70
2018-12-18T07:33:56.136Z,82.49
2018-12-18T07:36:24.962Z,82.53
2018-12-18T07:38:53.805Z,82.61
2018-12-18T07:41:22.659Z,82.15
2018-12-18T07:43:52.062Z,82.26
2018-12-18T07:46:20.880Z,82.11
2018-12-18T07:48:49.804Z,82.55
2018-12-18T07:51:18.710Z,82.07
2018-12-18T07:53:47.537Z,82.23
2018-12-18T07:56:16.456Z,82.89
2018-12-18T07:58:45.646Z,82.34
2018-12-18T08:01:14.992Z,82.10
2018-12-18T08:03:44.081Z,82.54
2018-12-18T08:06:13.253Z,83.05
2018-12-18T08:08:42.117Z,82.89
2018-12-18T08:11:11.271Z,82.72
2018-12-18T08:13:40.208Z,82.59
2018-12-18T08:16:09.119Z,82.81
2018-12-18T08:18:38.056Z,82.83
2018-12-18T08:21:06.881Z,82.24
2018-12-18T08:23:35.741Z,82.33
2018-12-18T08:26:05.000Z,82.54
2018-12-18T08:28:33.868Z,83.13
2018-12-18T08:31:02.755Z,82.59
2018-12-18T08:33:31.644Z,83.01
2018-12-18T08:36:01.561Z,82.76
2018-12-18T08:38:30.456Z,82.84
2018-12-18T08:41:00.157Z,82.72
2018-12-18T08:43:29.045Z,82.88
2018-12-18T08:45:57.960Z,82.70
2018-12-18T08:48:26.842Z,82.54
2018-12-18T08:50:55.705Z,81.91
2018-12-18T08:53:24.602Z,83.00
2018-12-18T08:55:53.613Z,83.31
2018-12-18T08:58:22.592Z,83.04
2018-12-18T09:00:51.617Z,82.66
2018-12-18T09:03:20.473Z,82.25
2018-12-18T09:05:49.363Z,82.62
2018-12-18T09:08:18.260Z,82.62
2018-12-18T09:10:47.304Z,82.90
2018-12-18T09:13:16.160Z,82.78
2018-12-18T09:15:56.069Z,82.71
2018-12-18T09:18:25.204Z,81.93
2018-12-18T09:20:54.066Z,82.78
2018-12-18T09:23:23.067Z,82.98
2018-12-18T09:25:52.122Z,82.96
2018-12-18T09:28:21.102Z,82.44
2018-12-18T09:30:49.941Z,81.70
2018-12-18T09:33:18.836Z,81.78
2018-12-18T09:35:49.857Z,81.32
2018-12-18T09:38:24.376Z,81.95
2018-12-18T09:40:58.513Z,81.87
2018-12-18T09:43:33.173Z,81.31
2018-12-18T09:46:02.235Z,81.71
2018-12-18T09:48:31.113Z,81.31
2018-12-18T09:50:59.961Z,81.58
2018-12-18T09:53:28.789Z,80.96
2018-12-18T09:55:58.298Z,80.92
2018-12-18T09:58:27.204Z,80.67
2018-12-18T10:00:56.091Z,80.54
2018-12-18T10:03:24.977Z,80.33
2018-12-18T10:05:56.465Z,80.48
2018-12-18T10:11:37.965Z,80.52
2018-12-18T10:14:07.137Z,80.05
2018-12-18T10:16:36.016Z,79.35
2018-12-18T10:19:04.912Z,79.01
2018-12-18T10:21:34.562Z,79.39
2018-12-18T10:24:03.404Z,79.36
2018-12-18T10:26:32.380Z,79.43
2018-12-18T10:29:01.434Z,79.82
2018-12-18T10:31:30.513Z,79.17
2018-12-18T10:33:59.482Z,79.58
2018-12-18T10:36:28.317Z,78.76
2018-12-18T10:38:57.267Z,78.34
2018-12-18T10:41:26.114Z,78.80
2018-12-18T10:43:55.154Z,78.23
2018-12-18T10:46:24.151Z,77.21
2018-12-18T10:48:53.120Z,77.48
2018-12-18T10:51:21.980Z,77.30
2018-12-18T10:53:50.944Z,76.84
2018-12-18T10:56:19.819Z,77.62
2018-12-18T10:58:48.689Z,77.26
2018-12-18T11:01:23.057Z,77.55
2018-12-18T11:03:51.897Z,78.13
2018-12-18T11:06:20.795Z,77.21
2018-12-18T11:08:49.787Z,77.20
2018-12-18T11:11:18.825Z,77.54
2018-12-18T11:13:47.668Z,76.91
2018-12-18T11:16:16.558Z,77.04
2018-12-18T11:18:45.475Z,77.30
2018-12-18T11:21:14.377Z,76.87
2018-12-18T11:23:43.348Z,77.50
2018-12-18T11:26:12.329Z,77.16
2018-12-18T11:28:41.643Z,76.42
2018-12-18T11:31:10.616Z,76.42
2018-12-18T11:33:39.516Z,76.60
2018-12-18T11:36:08.812Z,76.87
2018-12-18T11:38:37.684Z,76.56
2018-12-18T11:41:06.704Z,75.84
2018-12-18T11:43:35.593Z,76.88
2018-12-18T11:46:04.459Z,76.44
2018-12-18T11:48:33.426Z,76.11
2018-12-18T11:51:02.387Z,76.09
2018-12-18T11:53:31.228Z,75.37
2018-12-18T11:56:00.060Z,75.20
2018-12-18T11:58:28.910Z,75.24
2018-12-18T12:00:57.932Z,74.94
2018-12-18T12:03:26.810Z,75.26
2018-12-18T12:05:57.645Z,74.80
2018-12-18T12:08:26.465Z,75.29
2018-12-18T12:10:55.320Z,75.00
2018-12-18T12:13:24.704Z,74.34
2018-12-18T12:15:54.636Z,73.87
2018-12-18T12:18:23.745Z,74.73
2018-12-18T12:20:52.610Z,74.14
2018-12-18T12:23:21.524Z,74.44
2018-12-18T12:25:50.498Z,74.10
2018-12-18T12:28:19.385Z,73.93
2018-12-18T12:30:48.298Z,74.26
2018-12-18T12:33:17.177Z,73.69
2018-12-18T12:35:46.070Z,74.07
2018-12-18T12:38:14.915Z,73.51
2018-12-18T12:40:44.566Z,73.17
2018-12-18T12:43:13.564Z,73.46
2018-12-18T12:45:42.645Z,73.56
2018-12-18T12:48:11.544Z,73.12
2018-12-18T12:50:40.432Z,73.60
2018-12-18T12:53:09.344Z,73.41
2018-12-18T12:55:38.363Z,73.73
2018-12-18T12:58:07.366Z,73.57
2018-12-18T13:00:36.209Z,73.07
2018-12-18T13:03:05.076Z,73.22
2018-12-18T13:05:34.041Z,73.94
2018-12-18T13:08:02.869Z,74.11
2018-12-18T13:10:31.790Z,72.90
2018-12-18T13:13:00.753Z,73.13
2018-12-18T13:15:29.593Z,73.00
2018-12-18T13:17:58.557Z,73.09
2018-12-18T13:20:27.457Z,73.20
2018-12-18T13:22:56.421Z,73.37
2018-12-18T13:25:25.304Z,73.37
2018-12-18T13:27:54.197Z,74.08
2018-12-18T13:30:23.091Z,73.66
2018-12-18T13:32:51.972Z,73.94
2018-12-18T13:35:20.873Z,73.39
2018-12-18T13:37:49.745Z,73.87
2018-12-18T13:40:18.966Z,73.98
2018-12-18T13:42:47.963Z,73.72
2018-12-18T13:45:16.891Z,73.89
2018-12-18T13:47:45.744Z,73.14
2018-12-18T13:50:14.737Z,73.17
2018-12-18T13:52:43.609Z,73.66
2018-12-18T13:55:12.601Z,72.74
2018-12-18T13:57:41.589Z,72.83
2018-12-18T14:00:10.602Z,73.14
2018-12-18T14:02:39.681Z,72.73
2018-12-18T14:05:08.558Z,72.49
2018-12-18T14:07:37.453Z,72.56
2018-12-18T14:10:07.052Z,72.70
2018-12-18T14:12:35.957Z,73.02
2018-12-18T14:15:05.304Z,72.94
2018-12-18T14:17:34.287Z,72.93
2018-12-18T14:20:03.235Z,73.29
2018-12-18T14:22:32.136Z,73.25
2018-12-18T14:25:01.245Z,73.45
2018-12-18T14:27:30.208Z,73.11
2018-12-18T14:29:59.114Z,73.24
2018-12-18T14:32:27.993Z,73.68
2018-12-18T14:34:56.821Z,72.82
2018-12-18T14:37:25.736Z,73.51
2018-12-18T14:39:54.681Z,73.45
2018-12-18T14:42:23.586Z,73.70
2018-12-18T14:44:52.584Z,73.09
2018-12-18T14:47:22.479Z,73.04
2018-12-18T14:49:51.672Z,73.02
2018-12-18T14:52:20.573Z,72.98
2018-12-18T14:54:49.606Z,74.12
2018-12-18T14:57:18.445Z,74.04
2018-12-18T14:59:47.640Z,73.68
2018-12-18T15:02:16.633Z,74.26
2018-12-18T15:04:46.757Z,74.05
2018-12-18T15:07:15.645Z,74.28
2018-12-18T15:09:44.455Z,73.71
2018-12-18T15:12:13.349Z,74.51
2018-12-18T15:14:42.305Z,74.49
2018-12-18T15:17:11.210Z,74.09
2018-12-18T15:19:40.623Z,73.95
2018-12-18T15:22:09.549Z,74.47
2018-12-18T15:24:38.376Z,74.76
2018-12-18T15:27:07.193Z,74.53
2018-12-18T15:29:36.188Z,74.81
2018-12-18T15:32:06.728Z,74.36
2018-12-18T15:34:35.585Z,74.38
2018-12-18T15:37:09.660Z,75.16
2018-12-18T15:39:35.302Z,75.57
2018-12-18T15:42:04.720Z,74.90
2018-12-18T15:44:33.613Z,75.28
2018-12-18T15:47:02.505Z,75.54
2018-12-18T15:49:31.372Z,75.40
2018-12-18T15:52:00.291Z,75.82
2018-12-18T15:54:29.162Z,75.77
2018-12-18T15:56:58.073Z,75.09
2018-12-18T15:59:27.040Z,76.08
2018-12-18T16:01:55.936Z,75.81
2018-12-18T16:04:24.950Z,76.30
2018-12-18T16:06:53.832Z,75.67
2018-12-18T16:09:22.831Z,75.95
2018-12-18T16:11:51.709Z,75.89
2018-12-18T16:14:20.513Z,76.17
2018-12-18T16:16:49.402Z,75.71
2018-12-18T16:19:19.479Z,76.03
2018-12-18T16:21:48.645Z,75.64
2018-12-18T16:24:17.720Z,75.30
2018-12-18T16:26:46.566Z,75.08
2018-12-18T16:29:15.480Z,75.56
2018-12-18T16:31:44.358Z,75.29
2018-12-18T16:34:13.289Z,75.97
2018-12-18T16:36:42.219Z,75.71
2018-12-18T16:39:11.043Z,75.63
2018-12-18T16:41:40.584Z,75.98
2018-12-18T16:44:09.433Z,75.93
2018-12-18T16:46:38.253Z,76.36
2018-12-18T16:49:07.128Z,76.72
2018-12-18T16:51:36.334Z,76.23
2018-12-18T16:54:05.552Z,76.24
2018-12-18T16:56:35.336Z,76.31
2018-12-18T16:59:04.465Z,76.48
2018-12-18T17:01:33.770Z,76.56
2018-12-18T17:04:02.833Z,76.42
2018-12-18T17:06:31.673Z,76.08
2018-12-18T17:09:00.524Z,75.90
2018-12-18T17:11:31.313Z,76.33
2018-12-18T17:14:00.245Z,76.37
2018-12-18T17:16:29.222Z,76.33
2018-12-18T17:18:58.079Z,76.14
2018-12-18T17:21:27.005Z,76.34
2018-12-18T17:23:56.114Z,76.16
2018-12-18T17:26:25.072Z,76.29
2018-12-18T17:28:54.008Z,76.42
2018-12-18T17:31:22.870Z,76.47
2018-12-18T17:33:51.740Z,76.48
2018-12-18T17:36:20.620Z,76.27
2018-12-18T17:38:49.484Z,76.83
2018-12-18T17:41:18.338Z,76.60
2018-12-18T17:43:47.572Z,76.62
2018-12-18T17:46:16.412Z,77.07
2018-12-18T17:48:45.965Z,76.66
2018-12-18T17:51:14.793Z,76.55
2018-12-18T17:53:43.706Z,77.12
2018-12-18T17:56:12.600Z,77.00
2018-12-18T17:58:41.424Z,77.61
2018-12-18T18:01:10.492Z,76.84
2018-12-18T18:03:39.389Z,77.32
2018-12-18T18:06:08.348Z,77.01
2018-12-18T18:08:37.248Z,76.80
2018-12-18T18:11:07.044Z,76.69
2018-12-18T18:13:35.909Z,77.01
2018-12-18T18:16:04.874Z,77.38
2018-12-18T18:18:33.684Z,77.01
2018-12-18T18:21:07.802Z,76.49
2018-12-18T18:23:37.944Z,77.00
2018-12-18T18:26:06.787Z,77.50
2018-12-18T18:28:35.730Z,77.03
2018-12-18T18:31:04.961Z,76.95
2018-12-18T18:33:33.913Z,77.09
2018-12-18T18:36:02.853Z,76.61
2018-12-18T18:38:31.728Z,76.70
2018-12-18T18:41:00.721Z,77.13
2018-12-18T18:43:29.601Z,78.12
2018-12-18T18:45:58.589Z,77.03
2018-12-18T18:48:27.461Z,77.13
2018-12-18T18:50:56.377Z,76.92
2018-12-18T18:53:25.248Z,77.08
2018-12-18T18:55:54.137Z,77.03
2018-12-18T18:58:23.021Z,77.07
2018-12-18T19:00:51.920Z,77.08
2018-12-18T19:03:20.961Z,77.56
2018-12-18T19:05:49.815Z,76.72
2018-12-18T19:08:18.684Z,77.21
2018-12-18T19:10:47.877Z,76.42
2018-12-18T19:13:16.728Z,76.59
2018-12-18T19:15:45.602Z,76.81
2018-12-18T19:18:14.574Z,76.55
2018-12-18T19:20:43.471Z,77.02
2018-12-18T19:23:13.260Z,76.66
2018-12-18T19:25:42.144Z,76.14
2018-12-18T19:28:11.040Z,76.46
2018-12-18T19:30:39.941Z,77.00
2018-12-18T19:33:08.960Z,76.63
2018-12-18T19:35:37.860Z,76.80
2018-12-18T19:38:07.562Z,76.42
2018-12-18T19:40:36.562Z,76.49
2018-12-18T19:43:05.744Z,75.97
2018-12-18T19:45:34.602Z,76.19
2018-12-18T19:48:03.498Z,75.87
2018-12-18T19:50:32.547Z,76.25
2018-12-18T19:53:01.378Z,74.88
2018-12-18T19:55:30.201Z,75.52
2018-12-18T19:57:59.045Z,75.75
2018-12-18T20:00:28.156Z,76.26
2018-12-18T20:02:57.060Z,75.84
2018-12-18T20:05:26.106Z,75.92
2018-12-18T20:07:55.025Z,76.14
2018-12-18T20:10:24.025Z,75.95
2018-12-18T20:12:53.587Z,75.41
2018-12-18T20:15:22.513Z,75.87
2018-12-18T20:17:51.630Z,75.56
2018-12-18T20:20:21.481Z,74.89
2018-12-18T20:22:51.162Z,75.20
2018-12-18T20:25:20.136Z,74.84
2018-12-18T20:27:49.233Z,75.50
2018-12-18T20:30:19.240Z,75.24
2018-12-18T20:32:48.257Z,75.56
2018-12-18T20:35:17.121Z,76.56
2018-12-18T20:37:46.074Z,75.20
2018-12-18T20:40:15.216Z,75.00
2018-12-18T20:42:44.105Z,75.51
2018-12-18T20:45:13.135Z,74.50
2018-12-18T20:47:42.080Z,74.24
2018-12-18T20:50:11.101Z,74.83
2018-12-18T20:52:40.033Z,74.62
2018-12-18T20:55:08.890Z,74.88
2018-12-18T20:57:37.968Z,74.54
2018-12-18T21:03:07.592Z,74.26
2018-12-18T21:05:36.990Z,73.96
2018-12-18T21:08:05.846Z,74.50
2018-12-18T21:10:34.790Z,74.92
2018-12-18T21:13:09.336Z,74.00
2018-12-18T21:15:38.372Z,73.40
2018-12-18T21:18:07.330Z,74.24
2018-12-18T21:20:36.221Z,74.08
2018-12-18T21:23:05.392Z,73.75
2018-12-18T21:25:34.350Z,73.79
2018-12-18T21:28:03.349Z,74.07
2018-12-18T21:30:33.664Z,73.29
2018-12-18T21:33:02.672Z,73.24
2018-12-18T21:35:31.558Z,73.41
2018-12-18T21:38:00.411Z,73.35
2018-12-18T21:40:29.464Z,73.62
2018-12-18T21:42:58.311Z,73.16
2018-12-18T21:45:27.452Z,73.15
2018-12-18T21:47:56.315Z,72.85
2018-12-18T21:50:25.428Z,73.53
2018-12-18T21:52:54.459Z,72.89
2018-12-18T21:55:23.556Z,72.57
2018-12-18T21:57:52.503Z,73.12
2018-12-18T22:00:21.377Z,72.51
2018-12-18T22:02:51.547Z,73.33
2018-12-18T22:05:20.676Z,72.02
2018-12-18T22:07:50.204Z,72.20
2018-12-18T22:10:19.086Z,73.11
2018-12-18T22:12:48.092Z,72.71
2018-12-18T22:15:17.014Z,72.03
2018-12-18T22:17:45.865Z,72.46
2018-12-18T22:20:14.688Z,72.76
2018-12-18T22:22:43.640Z,72.99
2018-12-18T22:25:12.685Z,71.93
2018-12-18T22:27:42.789Z,71.63
2018-12-18T22:30:12.602Z,71.83
2018-12-18T22:32:41.616Z,72.77
2018-12-18T22:35:10.561Z,72.44
2018-12-18T22:37:39.562Z,71.59
2018-12-18T22:40:08.478Z,72.07
2018-12-18T22:42:37.337Z,71.79
2018-12-18T22:45:06.397Z,71.87
2018-12-18T22:47:35.361Z,72.59
2018-12-18T22:50:05.500Z,72.83
2018-12-18T22:52:34.525Z,71.77
2018-12-18T22:55:04.485Z,71.38
2018-12-18T22:57:33.432Z,71.34
2018-12-18T23:00:02.454Z,71.82
2018-12-18T23:02:33.256Z,71.22
2018-12-18T23:05:05.477Z,71.32
2018-12-18T23:07:35.013Z,71.30
2018-12-18T23:10:05.102Z,70.32
2018-12-18T23:12:34.092Z,70.63
2018-12-18T23:15:03.293Z,70.16
2018-12-18T23:17:32.865Z,70.55
2018-12-18T23:20:02.184Z,70.03
2018-12-18T23:22:31.374Z,70.18
2018-12-18T23:25:00.269Z,70.04
2018-12-18T23:27:31.113Z,69.86
2018-12-18T23:30:00.024Z,70.58
2018-12-18T23:32:28.994Z,69.58
2018-12-18T23:34:57.853Z,69.44
2018-12-18T23:37:26.753Z,69.83
2018-12-18T23:39:55.605Z,68.86
2018-12-18T23:42:24.533Z,69.43
2018-12-18T23:44:53.434Z,69.95
2018-12-18T23:47:22.425Z,70.04
2018-12-18T23:49:52.077Z,69.12
2018-12-18T23:52:23.334Z,70.01
2018-12-18T23:54:52.373Z,68.51
2018-12-18T23:57:21.621Z,69.40
2018-12-18T23:59:50.670Z,69.46
